This is the latest recevied weather packets stored in our database for station/object YC0TBU-4. If no packets are shown the sender has not sent any weather packets the latest 1 day(s).
| Time | Temp. | Humidity | Pressure | Rain* | Wind** | Luminosity | Snow |
|---|---|---|---|---|---|---|---|
| 1778117208 | 31.67° C | 38% | 1010.7 hPa | - | - | - | - |
| 1778102232 | 32.22° C | 37% | 1009.3 hPa | - | - | - | - |
| 1778100346 | 32.22° C | 38% | 1009.2 hPa | - | - | - | - |
| 1778099411 | 32.22° C | 37% | 1009.1 hPa | - | - | - | - |
| 1778096606 | 32.78° C | 37% | 1009.2 hPa | - | - | - | - |
| 1778095671 | 32.78° C | 37% | 1009.3 hPa | - | - | - | - |
| 1778094736 | 32.78° C | 37% | 1009.8 hPa | - | - | - | - |
| 1778092866 | 32.78° C | 37% | 1010.4 hPa | - | - | - | - |
| 1778091931 | 32.78° C | 37% | 1010.2 hPa | - | - | - | - |
| 1778090996 | 32.78° C | 37% | 1010.3 hPa | - | - | - | - |
| 1778090061 | 32.78° C | 37% | 1010.8 hPa | - | - | - | - |
| 1778080662 | 31.67° C | 39% | 1010.4 hPa | - | - | - | - |
| 1778078777 | 31.67° C | 39% | 1010.1 hPa | - | - | - | - |
| 1778076906 | 31.67° C | 39% | 1009.8 hPa | - | - | - | - |
| 1778075971 | 30° C | 42% | 1009.4 hPa | - | - | - | - |
| 1778075036 | 31.11° C | 40% | 1009.9 hPa | - | - | - | - |
| 1778074101 | 30° C | 42% | 1010.1 hPa | - | - | - | - |
| 1778071296 | 29.44° C | 42% | 1008.5 hPa | - | - | - | - |
| 1778060978 | 33.33° C | 35% | 1006.6 hPa | - | - | - | - |
| 1778058173 | 32.78° C | 35% | 1005.7 hPa | - | - | - | - |
| 1778057238 | 32.78° C | 35% | 1005.4 hPa | - | - | - | - |
| 1778056303 | 32.78° C | 35% | 1005.6 hPa | - | - | - | - |
| 1778055368 | 33.33° C | 35% | 1005.5 hPa | - | - | - | - |
| 1778054433 | 32.22° C | 37% | 1005.5 hPa | - | - | - | - |
| 1778053498 | 32.78° C | 36% | 1005.4 hPa | - | - | - | - |
* Rain since midnight (hover to see other rain measurements)
** Current wind speed in m/s (hover to see current wind gust speed)